createdAt,value
2023-06-16T00:38:09.106Z,101939.44
2023-06-16T00:40:36.768Z,101934.88
2023-06-16T00:43:05.067Z,101938.59
2023-06-16T00:45:32.782Z,101929.47
2023-06-16T00:48:01.827Z,101927.78
2023-06-16T00:50:29.920Z,101931.78
2023-06-16T00:52:58.125Z,101931.06
2023-06-16T00:55:25.983Z,101932.94
2023-06-16T00:57:55.497Z,101929.69
2023-06-16T01:00:23.705Z,101928.25
2023-06-16T01:02:51.708Z,101926.72
2023-06-16T01:05:22.388Z,101932.25
2023-06-16T01:08:03.645Z,101927.09
2023-06-16T01:10:44.595Z,101927.56
2023-06-16T01:13:25.560Z,101923.28
2023-06-16T01:15:54.279Z,101919.03
2023-06-16T01:18:24.331Z,101921.72
2023-06-16T01:21:51.634Z,101914.78
2023-06-16T01:24:25.119Z,101921.91
2023-06-16T01:26:56.311Z,101919.31
2023-06-16T01:29:26.296Z,101923.03
2023-06-16T01:31:58.362Z,101922.19
2023-06-16T01:34:29.165Z,101918.75
2023-06-16T01:36:58.465Z,101920.78
2023-06-16T01:39:29.344Z,101924.75
2023-06-16T01:42:00.020Z,101926.75
2023-06-16T01:44:29.260Z,101923.34
2023-06-16T01:46:57.652Z,101923.50
2023-06-16T01:49:26.265Z,101925.50
2023-06-16T01:51:53.905Z,101922.78
2023-06-16T01:54:21.475Z,101921.78
2023-06-16T01:56:49.182Z,101923.78
2023-06-16T01:59:16.881Z,101925.06
2023-06-16T02:01:51.049Z,101909.31
2023-06-16T02:04:22.072Z,101911.44
2023-06-16T02:07:10.818Z,101910.72
2023-06-16T02:09:39.966Z,101913.59
2023-06-16T02:12:12.450Z,101928.06
2023-06-16T02:14:41.262Z,101913.03
2023-06-16T02:17:14.309Z,101921.13
2023-06-16T02:19:42.288Z,101919.28
2023-06-16T02:22:10.111Z,101924.78
2023-06-16T02:24:37.790Z,101919.69
2023-06-16T02:27:05.867Z,101918.84
2023-06-16T02:29:33.554Z,101921.81
2023-06-16T02:32:01.234Z,101924.97
2023-06-16T02:34:29.028Z,101928.66
2023-06-16T02:36:57.798Z,101927.94
2023-06-16T02:39:25.652Z,101926.38
2023-06-16T02:41:53.294Z,101923.00
2023-06-16T02:44:20.996Z,101925.69
2023-06-16T02:46:48.779Z,101927.78
2023-06-16T02:49:18.232Z,101917.72
2023-06-16T02:51:46.746Z,101919.00
2023-06-16T02:54:14.629Z,101913.31
2023-06-16T02:56:42.322Z,101915.19
2023-06-16T02:59:11.680Z,101914.72
2023-06-16T03:01:40.336Z,101918.41
2023-06-16T03:04:18.541Z,101915.97
2023-06-16T03:07:16.029Z,101915.41
2023-06-16T03:09:47.264Z,101921.78
2023-06-16T03:12:15.705Z,101922.94
2023-06-16T03:15:13.298Z,101918.66
2023-06-16T03:17:41.681Z,101920.78
2023-06-16T03:20:10.786Z,101924.72
2023-06-16T03:22:48.694Z,101919.63
2023-06-16T03:25:16.676Z,101927.84
2023-06-16T03:27:48.225Z,101921.63
2023-06-16T03:30:20.184Z,101921.91
2023-06-16T03:33:02.995Z,101920.31
2023-06-16T03:35:32.849Z,101918.47
2023-06-16T03:38:02.598Z,101916.94
2023-06-16T03:40:31.666Z,101926.16
2023-06-16T03:42:59.378Z,101920.88
2023-06-16T03:45:27.100Z,101920.19
2023-06-16T03:47:57.239Z,101913.34
2023-06-16T03:50:25.078Z,101921.84
2023-06-16T03:53:06.306Z,101916.59
2023-06-16T03:55:42.157Z,101924.66
2023-06-16T03:58:10.041Z,101920.28
2023-06-16T04:00:37.665Z,101918.44
2023-06-16T04:03:05.927Z,101915.72
2023-06-16T04:05:34.565Z,101920.00
2023-06-16T04:08:03.687Z,101913.63
2023-06-16T04:10:31.389Z,101913.03
2023-06-16T04:12:59.426Z,101919.28
2023-06-16T04:15:28.787Z,101911.06
2023-06-16T04:17:57.931Z,101912.66
2023-06-16T04:20:25.609Z,101912.38
2023-06-16T04:22:53.645Z,101902.72
2023-06-16T04:25:23.012Z,101909.94
2023-06-16T04:27:50.955Z,101911.38
2023-06-16T04:30:23.618Z,101910.25
2023-06-16T04:32:52.308Z,101898.34
2023-06-16T04:35:22.774Z,101899.31
2023-06-16T04:37:50.645Z,101906.44
2023-06-16T04:40:19.029Z,101908.84
2023-06-16T04:42:48.486Z,101910.69
2023-06-16T04:45:17.016Z,101911.44
2023-06-16T04:47:48.422Z,101914.56
2023-06-16T04:50:16.922Z,101902.59
2023-06-16T04:52:49.148Z,101902.63
2023-06-16T04:55:18.109Z,101900.88
2023-06-16T04:57:46.011Z,101899.03
2023-06-16T05:00:14.253Z,101896.84
2023-06-16T05:02:43.214Z,101896.25
2023-06-16T05:05:11.289Z,101902.19
2023-06-16T05:07:39.406Z,101908.22
2023-06-16T05:10:09.053Z,101899.69
2023-06-16T05:12:38.057Z,101902.50
2023-06-16T05:15:06.466Z,101903.25
2023-06-16T05:17:34.547Z,101909.94
2023-06-16T05:20:02.361Z,101907.63
2023-06-16T05:22:31.390Z,101910.81
2023-06-16T05:24:59.280Z,101911.53
2023-06-16T05:27:27.232Z,101917.09
2023-06-16T05:29:59.539Z,101912.75
2023-06-16T05:32:29.627Z,101914.44
2023-06-16T05:34:57.711Z,101907.75
2023-06-16T05:37:26.130Z,101911.44
2023-06-16T05:39:54.102Z,101911.53
2023-06-16T05:42:22.495Z,101913.44
2023-06-16T05:44:51.324Z,101911.56
2023-06-16T05:47:19.096Z,101912.53
2023-06-16T05:49:47.161Z,101908.44
2023-06-16T05:52:14.826Z,101914.00
2023-06-16T05:54:43.683Z,101912.84
2023-06-16T05:57:18.268Z,101903.72
2023-06-16T05:59:45.949Z,101910.19
2023-06-16T06:02:15.268Z,101902.91
2023-06-16T06:04:44.943Z,101912.78
2023-06-16T06:07:13.020Z,101905.22
2023-06-16T06:09:41.894Z,101909.78
2023-06-16T06:12:12.900Z,101908.34
2023-06-16T06:14:40.776Z,101915.19
2023-06-16T06:17:09.084Z,101917.09
2023-06-16T06:19:36.924Z,101918.22
2023-06-16T06:22:05.745Z,101919.44
2023-06-16T06:24:33.489Z,101927.97
2023-06-16T06:27:01.255Z,101918.34
2023-06-16T06:29:28.905Z,101922.25
2023-06-16T06:31:57.500Z,101925.28
2023-06-16T06:34:25.209Z,101911.38
2023-06-16T06:36:53.698Z,101914.38
2023-06-16T06:39:21.691Z,101922.81
2023-06-16T06:41:50.090Z,101917.50
2023-06-16T06:44:23.544Z,101918.75
2023-06-16T06:46:52.250Z,101917.66
2023-06-16T06:49:21.881Z,101926.44
2023-06-16T06:51:50.042Z,101926.34
2023-06-16T06:54:17.645Z,101928.75
2023-06-16T06:56:45.360Z,101933.81
2023-06-16T06:59:12.966Z,101927.97
2023-06-16T07:01:40.680Z,101927.78
2023-06-16T07:04:08.433Z,101932.59
2023-06-16T07:06:37.826Z,101932.16
2023-06-16T07:09:07.214Z,101924.22
2023-06-16T07:11:37.999Z,101937.69
2023-06-16T07:14:06.106Z,101932.09
2023-06-16T07:16:33.810Z,101929.78
2023-06-16T07:19:02.918Z,101932.16
2023-06-16T07:21:30.746Z,101935.94
2023-06-16T07:23:59.113Z,101938.44
2023-06-16T07:26:27.130Z,101944.56
2023-06-16T07:28:54.778Z,101930.44
2023-06-16T07:31:22.817Z,101934.63
2023-06-16T07:33:50.377Z,101930.50
2023-06-16T07:36:18.140Z,101928.03
2023-06-16T07:38:46.121Z,101929.53
2023-06-16T07:41:14.011Z,101931.97
2023-06-16T07:43:41.673Z,101922.44
2023-06-16T07:46:09.284Z,101929.59
2023-06-16T07:48:36.920Z,101920.94
2023-06-16T07:51:04.583Z,101932.00
2023-06-16T07:53:32.546Z,101925.19
2023-06-16T07:56:00.224Z,101919.91
2023-06-16T07:58:27.813Z,101927.53
2023-06-16T08:00:55.710Z,101921.41
2023-06-16T08:03:23.460Z,101930.03
2023-06-16T08:05:51.182Z,101921.63
2023-06-16T08:08:20.240Z,101922.94
2023-06-16T08:10:47.979Z,101919.00
2023-06-16T08:13:15.664Z,101922.59
2023-06-16T08:15:43.297Z,101914.97
2023-06-16T08:18:11.523Z,101918.69
2023-06-16T08:20:39.237Z,101909.63
2023-06-16T08:23:07.015Z,101912.22
2023-06-16T08:25:34.712Z,101911.41
2023-06-16T08:28:02.404Z,101914.25
2023-06-16T08:30:31.006Z,101906.19
2023-06-16T08:32:58.600Z,101904.91
2023-06-16T08:35:26.354Z,101907.59
2023-06-16T08:37:53.957Z,101904.97
2023-06-16T08:40:21.942Z,101906.81
2023-06-16T08:42:50.103Z,101901.97
2023-06-16T08:45:18.833Z,101893.91
2023-06-16T08:47:46.962Z,101893.63
2023-06-16T08:50:20.833Z,101892.72
2023-06-16T08:52:49.855Z,101895.59
2023-06-16T08:55:20.887Z,101895.41
2023-06-16T08:57:51.631Z,101883.50
2023-06-16T09:00:20.686Z,101883.59
2023-06-16T09:02:58.221Z,101875.84
2023-06-16T09:05:27.397Z,101874.25
2023-06-16T09:07:55.330Z,101876.53
2023-06-16T09:10:23.790Z,101876.88
2023-06-16T09:12:53.669Z,101873.91
2023-06-16T09:15:22.517Z,101869.19
2023-06-16T09:17:52.549Z,101868.38
2023-06-16T09:20:24.612Z,101873.16
2023-06-16T09:23:05.517Z,101862.91
2023-06-16T09:25:34.898Z,101859.91
2023-06-16T09:28:10.782Z,101856.34
2023-06-16T09:30:42.430Z,101858.09
2023-06-16T09:33:12.927Z,101858.44
2023-06-16T09:35:42.888Z,101854.84
2023-06-16T09:38:11.662Z,101857.66
2023-06-16T09:40:40.178Z,101849.56
2023-06-16T09:43:10.891Z,101855.13
2023-06-16T09:45:38.973Z,101851.81
2023-06-16T09:48:10.243Z,101840.97
2023-06-16T09:50:39.365Z,101838.69
2023-06-16T09:53:08.525Z,101849.88
2023-06-16T09:55:41.320Z,101842.81
2023-06-16T09:58:09.772Z,101845.91
2023-06-16T10:00:37.550Z,101837.81
2023-06-16T10:03:09.066Z,101834.09
2023-06-16T10:05:38.525Z,101835.69
2023-06-16T10:08:07.896Z,101835.50
2023-06-16T10:10:39.960Z,101819.59
2023-06-16T10:13:10.000Z,101822.00
2023-06-16T10:15:40.376Z,101819.09
2023-06-16T10:18:12.234Z,101818.69
2023-06-16T10:20:41.804Z,101821.31
2023-06-16T10:23:10.101Z,101819.13
2023-06-16T10:25:41.475Z,101811.16
2023-06-16T10:28:14.852Z,101806.94
2023-06-16T10:30:45.164Z,101818.88
2023-06-16T10:33:27.387Z,101805.81
2023-06-16T10:36:15.820Z,101813.34
2023-06-16T10:39:02.380Z,101802.22
2023-06-16T10:41:30.869Z,101798.81
2023-06-16T10:44:34.280Z,101785.63
2023-06-16T10:47:11.263Z,101782.81
2023-06-16T10:49:45.468Z,101782.28
2023-06-16T10:52:51.287Z,101789.38
2023-06-16T10:55:21.820Z,101785.94
2023-06-16T10:57:58.870Z,101777.63
2023-06-16T11:00:28.955Z,101780.97
2023-06-16T11:03:05.004Z,101770.78
2023-06-16T11:05:40.342Z,101774.94
2023-06-16T11:08:09.797Z,101781.06
2023-06-16T11:10:52.412Z,101770.25
2023-06-16T11:13:24.910Z,101778.44
2023-06-16T11:15:56.714Z,101778.66
2023-06-16T11:18:26.411Z,101766.38
2023-06-16T11:21:02.145Z,101754.53
2023-06-16T11:23:30.648Z,101762.66
2023-06-16T11:26:09.733Z,101755.78
2023-06-16T11:28:42.192Z,101755.44
2023-06-16T11:31:11.633Z,101756.56
2023-06-16T11:33:41.012Z,101765.91
2023-06-16T11:36:19.125Z,101747.97
2023-06-16T11:38:49.275Z,101738.25
2023-06-16T11:41:18.870Z,101745.31
2023-06-16T11:43:47.325Z,101740.72
2023-06-16T11:46:17.334Z,101743.31
2023-06-16T11:48:46.045Z,101730.16
2023-06-16T11:51:15.596Z,101729.66
2023-06-16T11:53:43.344Z,101719.28
2023-06-16T11:56:18.396Z,101724.78
2023-06-16T11:58:47.269Z,101725.38
2023-06-16T12:01:16.815Z,101717.94
2023-06-16T12:06:21.007Z,101722.22
2023-06-16T12:08:52.725Z,101719.16
2023-06-16T12:11:29.798Z,101716.16
2023-06-16T12:13:58.821Z,101711.00
2023-06-16T12:16:29.639Z,101715.44
2023-06-16T12:18:58.715Z,101707.81
2023-06-16T12:21:29.030Z,101711.44
2023-06-16T12:24:00.063Z,101709.88
2023-06-16T12:26:34.979Z,101708.34
2023-06-16T12:29:09.707Z,101701.16
2023-06-16T12:31:38.084Z,101695.31
2023-06-16T12:34:05.706Z,101696.09
2023-06-16T12:36:41.058Z,101689.44
2023-06-16T12:39:18.088Z,101691.13
2023-06-16T12:42:03.911Z,101691.38
2023-06-16T12:44:45.403Z,101689.81
2023-06-16T12:47:17.596Z,101686.25
2023-06-16T12:49:45.753Z,101683.78
2023-06-16T12:52:15.548Z,101681.56
2023-06-16T12:54:44.454Z,101680.34
2023-06-16T12:57:14.557Z,101669.53
2023-06-16T12:59:43.013Z,101670.28
2023-06-16T13:02:11.497Z,101661.09
2023-06-16T13:04:39.277Z,101662.66
2023-06-16T13:07:07.503Z,101661.91
2023-06-16T13:09:35.185Z,101667.25
2023-06-16T13:12:03.679Z,101661.97
2023-06-16T13:14:31.780Z,101652.75
2023-06-16T13:16:59.649Z,101656.22
2023-06-16T13:19:27.582Z,101656.16
2023-06-16T13:21:55.163Z,101645.59
2023-06-16T13:24:22.863Z,101641.41
2023-06-16T13:26:50.594Z,101643.91
2023-06-16T13:29:18.209Z,101636.34
2023-06-16T13:31:46.456Z,101633.28
2023-06-16T13:34:14.199Z,101627.34
2023-06-16T13:36:43.055Z,101630.97
2023-06-16T13:39:12.145Z,101627.22
2023-06-16T13:41:39.768Z,101624.81
2023-06-16T13:44:07.492Z,101618.47
2023-06-16T13:46:35.157Z,101624.38
2023-06-16T13:49:02.775Z,101626.84
2023-06-16T13:51:30.431Z,101626.59
2023-06-16T13:53:58.181Z,101619.19
2023-06-16T13:56:26.534Z,101619.91
2023-06-16T13:58:54.256Z,101622.56
2023-06-16T14:01:21.943Z,101619.47
2023-06-16T14:03:49.637Z,101617.47
2023-06-16T14:06:17.275Z,101607.91
2023-06-16T14:08:45.684Z,101604.63
2023-06-16T14:11:13.425Z,101607.56
2023-06-16T14:13:40.981Z,101602.63
2023-06-16T14:16:08.613Z,101605.13
2023-06-16T14:18:36.213Z,101583.44
2023-06-16T14:21:03.855Z,101590.88
2023-06-16T14:23:31.503Z,101586.53
2023-06-16T14:25:59.326Z,101583.41
2023-06-16T14:28:27.041Z,101592.16
2023-06-16T14:30:54.956Z,101580.28
2023-06-16T14:33:22.567Z,101580.63
2023-06-16T14:35:50.131Z,101571.09
2023-06-16T14:38:17.943Z,101571.34
2023-06-16T14:40:45.539Z,101572.94
2023-06-16T14:43:13.185Z,101565.66
2023-06-16T14:45:40.844Z,101556.75
2023-06-16T14:48:08.463Z,101552.41
2023-06-16T14:50:36.046Z,101560.19
2023-06-16T14:53:03.666Z,101549.03
2023-06-16T14:55:31.397Z,101544.66
2023-06-16T14:57:59.012Z,101549.31
2023-06-16T15:00:26.983Z,101538.66
2023-06-16T15:02:54.850Z,101546.81
2023-06-16T15:05:22.635Z,101549.69
2023-06-16T15:07:50.262Z,101540.94
2023-06-16T15:10:18.047Z,101535.66
2023-06-16T15:12:46.015Z,101540.81
2023-06-16T15:15:13.669Z,101531.94
2023-06-16T15:17:41.680Z,101539.88
2023-06-16T15:20:09.830Z,101538.56
2023-06-16T15:22:37.442Z,101531.94
2023-06-16T15:25:05.735Z,101540.72
2023-06-16T15:27:33.475Z,101541.69
2023-06-16T15:30:01.228Z,101534.66
2023-06-16T15:32:29.355Z,101522.47
2023-06-16T15:34:57.076Z,101523.41
2023-06-16T15:37:25.187Z,101528.78
2023-06-16T15:39:52.787Z,101525.44
2023-06-16T15:42:20.582Z,101518.25
2023-06-16T15:44:48.596Z,101508.19
2023-06-16T15:47:16.307Z,101511.72
2023-06-16T15:49:44.521Z,101510.28
2023-06-16T15:52:12.204Z,101514.28
2023-06-16T15:54:39.916Z,101509.59
2023-06-16T15:57:09.462Z,101503.06
2023-06-16T15:59:37.631Z,101495.94
2023-06-16T16:02:06.645Z,101510.44
2023-06-16T16:04:34.332Z,101508.16
2023-06-16T16:07:02.672Z,101517.31
2023-06-16T16:09:30.394Z,101518.84
2023-06-16T16:11:59.111Z,101516.09
2023-06-16T16:14:28.657Z,101522.88
2023-06-16T16:16:56.333Z,101529.72
2023-06-16T16:19:24.039Z,101532.28
2023-06-16T16:21:51.832Z,101538.66
2023-06-16T16:24:19.499Z,101535.81
2023-06-16T16:26:47.594Z,101534.53
2023-06-16T16:29:21.475Z,101543.50
2023-06-16T16:31:49.208Z,101554.59
2023-06-16T16:34:16.876Z,101561.22
2023-06-16T16:36:44.608Z,101569.13
2023-06-16T16:39:12.314Z,101591.25
2023-06-16T16:41:39.910Z,101593.19
2023-06-16T16:44:07.645Z,101594.84
2023-06-16T16:46:35.877Z,101592.97
2023-06-16T16:49:03.476Z,101595.59
2023-06-16T16:51:31.381Z,101581.19
2023-06-16T16:53:59.089Z,101580.97
2023-06-16T16:56:26.778Z,101579.47
2023-06-16T16:58:54.646Z,101585.88
2023-06-16T17:01:22.731Z,101598.91
2023-06-16T17:03:50.699Z,101609.59
2023-06-16T17:06:18.335Z,101616.03
2023-06-16T17:08:45.948Z,101617.78
2023-06-16T17:11:13.594Z,101617.38
2023-06-16T17:13:41.488Z,101616.97
2023-06-16T17:16:09.423Z,101618.78
2023-06-16T17:18:37.056Z,101613.28
2023-06-16T17:21:04.640Z,101609.44
2023-06-16T17:23:32.736Z,101618.81
2023-06-16T17:26:00.392Z,101618.38
2023-06-16T17:28:28.292Z,101624.50
2023-06-16T17:30:56.096Z,101620.00
2023-06-16T17:33:23.807Z,101598.28
2023-06-16T17:35:51.515Z,101575.41
2023-06-16T17:38:19.097Z,101550.72
2023-06-16T17:40:46.673Z,101538.66
2023-06-16T17:43:14.341Z,101547.47
2023-06-16T17:45:42.031Z,101554.41
2023-06-16T17:48:09.739Z,101565.94
2023-06-16T17:50:39.341Z,101564.53
2023-06-16T17:53:07.376Z,101550.75
2023-06-16T17:55:35.131Z,101553.25
2023-06-16T17:58:03.803Z,101558.81
2023-06-16T18:00:31.847Z,101559.72
2023-06-16T18:02:59.671Z,101552.97
2023-06-16T18:05:27.536Z,101554.34
2023-06-16T18:07:55.798Z,101552.75
2023-06-16T18:10:23.643Z,101557.78
2023-06-16T18:12:51.620Z,101558.66
2023-06-16T18:15:19.365Z,101559.78
2023-06-16T18:17:47.087Z,101553.31
2023-06-16T18:20:14.801Z,101542.34
2023-06-16T18:22:42.434Z,101541.03
2023-06-16T18:25:10.504Z,101529.56
2023-06-16T18:27:38.166Z,101528.63
2023-06-16T18:30:08.021Z,101523.84
2023-06-16T18:32:39.968Z,101529.50
2023-06-16T18:35:08.682Z,101516.19
2023-06-16T18:37:44.265Z,101521.03
2023-06-16T18:40:13.984Z,101516.00
2023-06-16T18:42:42.412Z,101513.28
2023-06-16T18:45:10.514Z,101522.72
2023-06-16T18:47:38.640Z,101519.44
2023-06-16T18:50:08.322Z,101513.47
2023-06-16T18:52:36.535Z,101517.47
2023-06-16T18:55:05.784Z,101519.16
2023-06-16T18:57:34.180Z,101521.03
2023-06-16T19:00:02.449Z,101518.53
2023-06-16T19:02:32.417Z,101520.56
2023-06-16T19:05:00.370Z,101518.69
2023-06-16T19:07:28.902Z,101527.06
2023-06-16T19:09:56.488Z,101522.25
2023-06-16T19:12:24.377Z,101522.91
2023-06-16T19:14:52.118Z,101522.56
2023-06-16T19:17:19.752Z,101517.75
2023-06-16T19:19:47.395Z,101518.41
2023-06-16T19:22:15.055Z,101518.41
2023-06-16T19:24:42.675Z,101519.63
2023-06-16T19:27:10.326Z,101517.09
2023-06-16T19:29:38.269Z,101517.47
2023-06-16T19:32:06.310Z,101512.41
2023-06-16T19:34:35.803Z,101515.50
2023-06-16T19:37:03.610Z,101514.66
2023-06-16T19:39:31.339Z,101511.09
2023-06-16T19:41:58.957Z,101514.56
2023-06-16T19:44:26.670Z,101518.16
2023-06-16T19:46:54.443Z,101507.19
2023-06-16T19:49:22.247Z,101512.53
2023-06-16T19:51:50.739Z,101508.50
2023-06-16T19:54:20.571Z,101517.41
2023-06-16T19:56:48.447Z,101513.53
2023-06-16T19:59:16.169Z,101518.34
2023-06-16T20:01:43.815Z,101520.22
2023-06-16T20:04:11.697Z,101520.38
2023-06-16T20:06:39.521Z,101522.47
2023-06-16T20:09:07.316Z,101519.22
2023-06-16T20:11:35.528Z,101515.41
2023-06-16T20:14:03.250Z,101519.31
2023-06-16T20:16:30.999Z,101518.84
2023-06-16T20:18:58.672Z,101525.69
2023-06-16T20:21:26.336Z,101522.66
2023-06-16T20:23:54.066Z,101524.06
2023-06-16T20:26:22.128Z,101518.31
2023-06-16T20:28:49.908Z,101531.06
2023-06-16T20:31:17.675Z,101526.66
2023-06-16T20:33:45.316Z,101525.81
2023-06-16T20:36:13.408Z,101530.56
2023-06-16T20:38:41.198Z,101529.06
2023-06-16T20:41:09.048Z,101530.41
2023-06-16T20:43:38.568Z,101535.00
2023-06-16T20:46:06.464Z,101530.78
2023-06-16T20:48:34.165Z,101526.75
2023-06-16T20:51:01.844Z,101529.81
2023-06-16T20:53:29.414Z,101529.50
2023-06-16T20:55:57.290Z,101531.91
2023-06-16T20:58:25.870Z,101527.19
2023-06-16T21:00:54.695Z,101533.00
2023-06-16T21:03:25.897Z,101536.22
2023-06-16T21:05:53.973Z,101537.78
2023-06-16T21:08:32.769Z,101540.19
2023-06-16T21:11:01.328Z,101542.09
2023-06-16T21:13:29.449Z,101538.94
2023-06-16T21:16:03.727Z,101537.94
2023-06-16T21:18:32.354Z,101532.19
2023-06-16T21:21:00.096Z,101535.94
2023-06-16T21:23:28.055Z,101541.38
2023-06-16T21:25:55.675Z,101547.78
2023-06-16T21:28:23.488Z,101543.59
2023-06-16T21:30:51.266Z,101541.34
2023-06-16T21:33:19.021Z,101541.38
2023-06-16T21:35:46.844Z,101541.38
2023-06-16T21:38:20.307Z,101547.69
2023-06-16T21:40:48.074Z,101540.41
2023-06-16T21:43:15.707Z,101545.31
2023-06-16T21:45:43.358Z,101539.91
2023-06-16T21:48:11.112Z,101547.38
2023-06-16T21:50:39.022Z,101545.50
2023-06-16T21:53:06.672Z,101539.41
2023-06-16T21:55:34.457Z,101540.25
2023-06-16T21:58:02.066Z,101537.38
2023-06-16T22:00:30.121Z,101531.97
2023-06-16T22:02:57.864Z,101528.22
2023-06-16T22:05:25.751Z,101528.91
2023-06-16T22:07:54.616Z,101532.78
2023-06-16T22:10:22.535Z,101531.94
2023-06-16T22:12:52.878Z,101535.66
2023-06-16T22:15:21.704Z,101532.47
2023-06-16T22:17:49.430Z,101541.81
2023-06-16T22:20:17.608Z,101545.34
2023-06-16T22:22:45.496Z,101538.91
2023-06-16T22:25:16.177Z,101537.22
2023-06-16T22:27:43.912Z,101537.22
2023-06-16T22:30:12.057Z,101528.91
2023-06-16T22:32:39.755Z,101533.97
2023-06-16T22:35:07.862Z,101534.66
2023-06-16T22:37:35.725Z,101533.63
2023-06-16T22:40:04.766Z,101535.84
2023-06-16T22:42:32.551Z,101542.66
2023-06-16T22:45:00.214Z,101538.91
2023-06-16T22:47:27.865Z,101539.75
2023-06-16T22:49:55.516Z,101544.47
2023-06-16T22:52:23.351Z,101544.47
2023-06-16T22:54:51.983Z,101544.97
2023-06-16T22:57:19.670Z,101538.72
2023-06-16T22:59:47.343Z,101540.59
2023-06-16T23:02:15.338Z,101539.75
2023-06-16T23:04:42.978Z,101539.41
2023-06-16T23:07:10.757Z,101540.41
2023-06-16T23:09:38.584Z,101537.88
2023-06-16T23:12:06.556Z,101531.44
2023-06-16T23:14:34.188Z,101528.91
2023-06-16T23:17:01.794Z,101529.75
2023-06-16T23:19:29.409Z,101522.44
2023-06-16T23:21:57.648Z,101525.34
2023-06-16T23:24:25.260Z,101523.13
2023-06-16T23:26:55.674Z,101531.28
2023-06-16T23:29:23.502Z,101540.94
2023-06-16T23:31:51.444Z,101536.16
2023-06-16T23:34:20.487Z,101536.16
2023-06-16T23:36:48.211Z,101532.59
2023-06-16T23:39:15.863Z,101531.94
2023-06-16T23:41:43.511Z,101539.06
2023-06-16T23:44:11.194Z,101538.22
2023-06-16T23:46:39.151Z,101539.25
2023-06-16T23:49:06.768Z,101535.84
2023-06-16T23:51:34.392Z,101531.63
2023-06-16T23:54:02.177Z,101530.13
2023-06-16T23:56:29.829Z,101525.38
2023-06-16T23:58:57.484Z,101519.09
